Time;durP1;ratioP1;P1;durP2;ratioP2;P2;SDS_P1;SDS_P2;PMS_P1;PMS_P2;Temp;Humidity;BMP_temperature;BMP_pressure;BME280_temperature;BME280_humidity;BME280_pressure;Samples;Min_cycle;Max_cycle;Signal;HPM_P1;HPM_P2
2023/05/17 00:01:50;;;;;;;1999.90;999.90;;;9.90;99.90;;;;;;5063701;28;20021;-73
2023/05/17 00:04:16;;;;;;;1999.90;999.90;;;9.80;99.90;;;;;;5056412;28;20017;-78
2023/05/17 00:06:42;;;;;;;1999.90;999.90;;;9.80;99.90;;;;;;5056130;28;20091;-73
2023/05/17 00:09:08;;;;;;;1999.90;999.90;;;9.80;99.90;;;;;;5069253;28;20112;-72
2023/05/17 00:11:34;;;;;;;1999.90;999.90;;;9.80;99.90;;;;;;5076629;28;20056;-77
2023/05/17 00:13:59;;;;;;;1999.90;999.90;;;9.70;99.90;;;;;;5074754;28;20048;-78
2023/05/17 00:16:25;;;;;;;1999.90;999.90;;;9.70;99.90;;;;;;5069562;28;20048;-78
2023/05/17 00:18:51;;;;;;;1999.90;999.90;;;9.70;99.90;;;;;;5055714;28;20024;-73
2023/05/17 00:21:16;;;;;;;1999.90;999.90;;;9.60;99.90;;;;;;5056390;28;20036;-73
2023/05/17 00:23:42;;;;;;;1999.90;999.90;;;9.60;99.90;;;;;;5054916;28;20033;-78
2023/05/17 00:26:08;;;;;;;1999.90;999.90;;;9.50;99.90;;;;;;5055966;28;20025;-73
2023/05/17 00:28:33;;;;;;;1999.90;999.90;;;9.50;99.90;;;;;;5056082;28;20029;-77
2023/05/17 00:30:59;;;;;;;1999.90;999.90;;;9.50;99.90;;;;;;5056092;28;20211;-72
2023/05/17 00:33:24;;;;;;;1999.90;999.90;;;9.40;99.90;;;;;;5056332;28;20368;-73
2023/05/17 00:35:50;;;;;;;1999.90;999.90;;;9.40;99.90;;;;;;5056181;28;20037;-77
2023/05/17 00:38:16;;;;;;;1999.90;999.90;;;9.40;99.90;;;;;;5055091;28;20029;-78
2023/05/17 00:40:41;;;;;;;1999.90;999.90;;;9.40;99.90;;;;;;5055504;28;20032;-78
2023/05/17 00:43:07;;;;;;;1999.90;999.90;;;9.40;99.90;;;;;;5055826;28;20499;-78
2023/05/17 00:45:32;;;;;;;1999.90;999.90;;;9.30;99.90;;;;;;5055731;28;20071;-73
2023/05/17 00:47:58;;;;;;;1999.90;999.90;;;9.30;99.90;;;;;;5054830;28;20395;-72
2023/05/17 00:50:24;;;;;;;1999.90;999.90;;;9.30;99.90;;;;;;5055740;28;20029;-78
2023/05/17 00:52:50;;;;;;;1999.90;999.90;;;9.30;99.90;;;;;;5055652;28;20031;-78
2023/05/17 00:55:15;;;;;;;1999.90;999.90;;;9.30;99.90;;;;;;5055841;28;20036;-78
2023/05/17 00:57:41;;;;;;;1999.90;999.90;;;9.30;99.90;;;;;;5055425;28;20025;-73
2023/05/17 01:00:07;;;;;;;1999.90;999.90;;;9.20;99.90;;;;;;5054511;28;20074;-73
2023/05/17 01:02:33;;;;;;;1999.90;999.90;;;9.20;99.90;;;;;;5073649;28;20104;-78
2023/05/17 01:04:59;;;;;;;1999.90;999.90;;;9.20;99.90;;;;;;5075239;28;20052;-72
2023/05/17 01:07:24;;;;;;;1999.90;999.90;;;9.20;99.90;;;;;;5075426;28;20032;-78
2023/05/17 01:09:50;;;;;;;1999.90;999.90;;;9.10;99.90;;;;;;5056823;28;20111;-73
2023/05/17 01:12:48;;;;;;;1999.90;999.90;;;9.10;99.90;;;;;;5055259;28;20025;-73
2023/05/17 01:15:30;;;;;;;1999.90;999.90;;;9.10;99.90;;;;;;5054134;28;20021;-77
2023/05/17 01:18:10;;;;;;;1999.90;999.90;;;9.10;99.90;;;;;;5073813;28;20024;-72
2023/05/17 01:20:42;;;;;;;1999.90;999.90;;;9.00;99.90;;;;;;5075492;28;20052;-78
2023/05/17 01:23:42;;;;;;;1999.90;999.90;;;9.00;99.90;;;;;;5073770;28;20024;-73
2023/05/17 01:26:35;;;;;;;1999.90;999.90;;;9.00;99.90;;;;;;5074226;28;20024;-73
2023/05/17 01:29:01;;;;;;;;;;;9.00;99.90;;;;;;5074662;28;20074;-78
2023/05/17 01:31:27;;;;;;;1999.90;999.90;;;9.00;99.90;;;;;;5074941;28;19904;-78
2023/05/17 01:33:53;;;;;;;1999.90;999.90;;;9.00;99.90;;;;;;5073279;28;20462;-78
2023/05/17 01:36:19;;;;;;;1999.90;999.90;;;8.90;99.90;;;;;;5075005;28;20058;-72
2023/05/17 01:38:45;;;;;;;1999.90;999.90;;;8.90;99.90;;;;;;5061584;28;20036;-73
2023/05/17 01:41:23;;;;;;;1999.90;999.90;;;8.90;99.90;;;;;;5054650;28;20029;-78
2023/05/17 01:44:13;;;;;;;1999.90;999.90;;;8.90;99.90;;;;;;5054502;28;20033;-78
2023/05/17 01:46:40;;;;;;;1999.90;999.90;;;8.80;99.90;;;;;;5053651;28;20499;-77
2023/05/17 01:49:31;;;;;;;1999.90;999.90;;;8.80;99.90;;;;;;5054456;28;20128;-73
2023/05/17 01:52:14;;;;;;;1999.90;999.90;;;8.80;99.90;;;;;;5054569;28;20020;-77
2023/05/17 01:55:03;;;;;;;1999.90;999.90;;;8.80;99.90;;;;;;5054209;28;20571;-77
2023/05/17 01:57:36;;;;;;;1999.90;999.90;;;8.80;99.90;;;;;;5054617;28;20032;-73
2023/05/17 02:00:06;;;;;;;1999.90;999.90;;;8.80;99.90;;;;;;5053251;28;20053;-77
2023/05/17 02:02:31;;;;;;;1999.90;999.90;;;8.80;99.90;;;;;;5071715;28;20404;-77
2023/05/17 02:04:57;;;;;;;1999.90;999.90;;;8.70;99.90;;;;;;5074060;28;20029;-73
2023/05/17 02:07:23;;;;;;;1999.90;999.90;;;8.70;99.90;;;;;;5073969;28;20048;-76
2023/05/17 02:09:48;;;;;;;1999.90;999.90;;;8.70;99.90;;;;;;5074334;28;20028;-77
2023/05/17 02:12:14;;;;;;;1999.90;999.90;;;8.60;99.90;;;;;;5074408;28;20023;-78
2023/05/17 02:14:40;;;;;;;1999.90;999.90;;;8.60;99.90;;;;;;5074036;28;20020;-78
2023/05/17 02:17:06;;;;;;;1999.90;999.90;;;8.60;99.90;;;;;;5062281;28;20029;-72
2023/05/17 02:19:32;;;;;;;1999.90;999.90;;;8.50;99.90;;;;;;5053728;28;20025;-77
2023/05/17 02:21:57;;;;;;;1999.90;999.90;;;8.60;99.90;;;;;;5063383;28;20021;-73
2023/05/17 02:24:23;;;;;;;1999.90;999.90;;;8.50;99.90;;;;;;5055599;28;20032;-77
2023/05/17 02:26:49;;;;;;;1999.90;999.90;;;8.50;99.90;;;;;;5073709;28;20048;-78
2023/05/17 02:29:14;;;;;;;1999.90;999.90;;;8.50;99.90;;;;;;5073544;28;20060;-72
2023/05/17 02:31:40;;;;;;;1999.90;999.90;;;8.50;99.90;;;;;;5073711;28;20029;-73
2023/05/17 02:34:06;;;;;;;1999.90;999.90;;;8.50;99.90;;;;;;5073778;28;20021;-77
2023/05/17 02:36:31;;;;;;;1999.90;999.90;;;8.50;99.90;;;;;;5073804;28;20517;-78
2023/05/17 02:38:57;;;;;;;1999.90;999.90;;;8.40;99.90;;;;;;5055453;28;20035;-77
2023/05/17 02:41:26;;;;;;;1999.90;999.90;;;8.40;99.90;;;;;;5073483;28;20104;-73
2023/05/17 02:43:51;;;;;;;1999.90;999.90;;;8.30;99.90;;;;;;5073221;28;20395;-73
2023/05/17 02:46:17;;;;;;;1999.90;999.90;;;8.30;99.90;;;;;;5073355;28;20028;-77
2023/05/17 02:48:42;;;;;;;1999.90;999.90;;;8.30;99.90;;;;;;5073440;28;20031;-78
2023/05/17 02:51:08;;;;;;;1999.90;999.90;;;8.30;99.90;;;;;;5073328;28;20051;-78
2023/05/17 02:53:33;;;;;;;1999.90;999.90;;;8.30;99.90;;;;;;5073728;28;20025;-73
2023/05/17 02:55:59;;;;;;;1999.90;999.90;;;8.30;99.90;;;;;;5073225;28;20213;-73
2023/05/17 02:58:25;;;;;;;1999.90;999.90;;;8.30;99.90;;;;;;5073090;28;20043;-72
2023/05/17 03:00:50;;;;;;;1999.90;999.90;;;8.20;99.90;;;;;;5071803;28;20025;-78
2023/05/17 03:03:17;;;;;;;1999.90;999.90;;;8.30;99.90;;;;;;5073089;28;20174;-77
2023/05/17 03:05:43;;;;;;;1999.90;999.90;;;8.20;99.90;;;;;;5073050;28;20028;-77
2023/05/17 03:08:08;;;;;;;1999.90;999.90;;;8.20;99.90;;;;;;5072674;28;20044;-77
2023/05/17 03:10:34;;;;;;;1999.90;999.90;;;8.20;99.90;;;;;;5072191;28;20043;-78
2023/05/17 03:13:00;;;;;;;1999.90;999.90;;;8.20;99.90;;;;;;5072880;28;20023;-73
2023/05/17 03:15:28;;;;;;;1999.90;999.90;;;8.20;99.90;;;;;;5072355;28;20090;-73
2023/05/17 03:17:55;;;;;;;1999.90;999.90;;;8.20;99.90;;;;;;5073400;28;20021;-73
2023/05/17 03:20:21;;;;;;;1999.90;999.90;;;8.10;99.90;;;;;;5055002;28;20063;-72
2023/05/17 03:22:47;;;;;;;1999.90;999.90;;;8.20;99.90;;;;;;5073000;28;20032;-73
2023/05/17 03:25:12;;;;;;;1999.90;999.90;;;8.10;99.90;;;;;;5072659;28;20017;-72
2023/05/17 03:27:38;;;;;;;1999.90;999.90;;;8.10;99.90;;;;;;5072996;28;20479;-78
2023/05/17 03:30:04;;;;;;;1999.90;999.90;;;8.10;99.90;;;;;;5073112;28;20028;-77
2023/05/17 03:32:30;;;;;;;1999.90;999.90;;;8.10;99.90;;;;;;5072738;28;20028;-73
2023/05/17 03:34:55;;;;;;;1999.90;999.90;;;8.00;99.90;;;;;;5072907;28;20021;-72
2023/05/17 03:37:21;;;;;;;1999.90;999.90;;;8.10;99.90;;;;;;5073051;28;20115;-73
2023/05/17 03:39:47;;;;;;;1999.90;999.90;;;8.00;99.90;;;;;;5072997;28;20017;-73
2023/05/17 03:42:12;;;;;;;1999.90;999.90;;;8.00;99.90;;;;;;5072870;28;20391;-78
2023/05/17 03:44:39;;;;;;;1999.90;999.90;;;8.00;99.90;;;;;;5072775;28;20071;-77
2023/05/17 03:47:05;;;;;;;1999.90;999.90;;;8.00;99.90;;;;;;5072768;28;20025;-72
2023/05/17 03:49:31;;;;;;;1999.90;999.90;;;8.00;99.90;;;;;;5054325;28;20054;-77
2023/05/17 03:51:56;;;;;;;1999.90;999.90;;;7.90;99.90;;;;;;5072794;28;20035;-77
2023/05/17 03:54:22;;;;;;;1999.90;999.90;;;7.90;99.90;;;;;;5072912;28;20040;-77
2023/05/17 03:56:49;;;;;;;1999.90;999.90;;;7.90;99.90;;;;;;5072975;28;20095;-72
2023/05/17 03:59:15;;;;;;;1999.90;999.90;;;7.90;99.90;;;;;;5072762;28;20055;-73
2023/05/17 04:01:42;;;;;;;1999.90;999.90;;;7.80;99.90;;;;;;5071489;28;20028;-72
2023/05/17 04:04:08;;;;;;;1999.90;999.90;;;7.80;99.90;;;;;;5073099;28;20024;-77
2023/05/17 04:06:33;;;;;;;1999.90;999.90;;;7.80;99.90;;;;;;5072252;28;20087;-77
2023/05/17 04:08:59;;;;;;;1999.90;999.90;;;7.80;99.90;;;;;;5072641;28;20448;-77
2023/05/17 04:11:26;;;;;;;1999.90;999.90;;;7.80;99.90;;;;;;5073950;28;20161;-78
2023/05/17 04:13:52;;;;;;;1999.90;999.90;;;7.80;99.90;;;;;;5092504;28;20051;-72
2023/05/17 04:16:18;;;;;;;1999.90;999.90;;;7.80;99.90;;;;;;5067903;28;20017;-72
2023/05/17 04:18:44;;;;;;;1999.90;999.90;;;7.80;99.90;;;;;;5072812;28;20051;-77
2023/05/17 04:21:10;;;;;;;1999.90;999.90;;;7.80;99.90;;;;;;5073269;28;20028;-78
2023/05/17 04:23:36;;;;;;;1999.90;999.90;;;7.80;99.90;;;;;;5075045;28;20025;-73
2023/05/17 04:26:03;;;;;;;1999.90;999.90;;;7.70;99.90;;;;;;5075987;28;20021;-73
2023/05/17 04:28:29;;;;;;;1999.90;999.90;;;7.70;99.90;;;;;;5075991;28;20029;-72
2023/05/17 04:30:55;;;;;;;1999.90;999.90;;;7.80;99.90;;;;;;5075963;28;20027;-77
2023/05/17 04:33:21;;;;;;;1999.90;999.90;;;7.80;99.90;;;;;;5075930;28;20559;-77
2023/05/17 04:35:46;;;;;;;1999.90;999.90;;;7.80;99.90;;;;;;5075604;28;20025;-77
2023/05/17 04:38:12;;;;;;;1999.90;999.90;;;7.70;99.90;;;;;;5075767;28;20042;-72
2023/05/17 04:40:38;;;;;;;1999.90;999.90;;;7.70;99.90;;;;;;5075650;28;20063;-72
2023/05/17 04:43:03;;;;;;;1999.90;999.90;;;7.70;99.90;;;;;;5075927;28;20028;-77
2023/05/17 04:45:29;;;;;;;1999.90;999.90;;;7.70;99.90;;;;;;5057477;28;20123;-77
2023/05/17 04:47:55;;;;;;;1999.90;999.90;;;7.70;99.90;;;;;;5075440;28;20029;-73
2023/05/17 04:50:21;;;;;;;1999.90;999.90;;;7.70;99.90;;;;;;5075303;28;20545;-77
2023/05/17 04:52:46;;;;;;;1999.90;999.90;;;7.70;99.90;;;;;;5075567;28;20028;-73
2023/05/17 04:55:12;;;;;;;1999.90;999.90;;;7.70;99.90;;;;;;5075306;28;20025;-72
2023/05/17 04:57:38;;;;;;;1999.90;999.90;;;7.80;99.90;;;;;;5070155;28;20103;-77
2023/05/17 05:00:05;;;;;;;1999.90;999.90;;;7.80;99.90;;;;;;5075034;28;20112;-78
2023/05/17 05:02:31;;;;;;;1999.90;999.90;;;7.90;99.90;;;;;;5073688;28;20515;-77
2023/05/17 05:04:57;;;;;;;1999.90;999.90;;;7.90;99.90;;;;;;5075475;28;20107;-74
2023/05/17 05:07:23;;;;;;;1999.90;999.90;;;7.90;99.90;;;;;;5074620;28;20086;-73
2023/05/17 05:09:49;;;;;;;1999.90;999.90;;;7.90;99.90;;;;;;5074924;28;20424;-78
2023/05/17 05:12:15;;;;;;;1999.90;999.90;;;8.00;99.90;;;;;;5074736;28;20025;-78
2023/05/17 05:14:40;;;;;;;1999.90;999.90;;;8.00;99.90;;;;;;5074814;28;20480;-78
2023/05/17 05:17:06;;;;;;;1999.90;999.90;;;8.10;99.90;;;;;;5074347;28;20028;-73
2023/05/17 05:19:32;;;;;;;1999.90;999.90;;;8.10;99.90;;;;;;5074961;28;20028;-73
2023/05/17 05:21:58;;;;;;;1999.90;999.90;;;8.20;99.90;;;;;;5074248;28;20097;-72
2023/05/17 05:24:23;;;;;;;1999.90;999.90;;;8.10;99.90;;;;;;5074890;28;20025;-72
2023/05/17 05:26:49;;;;;;;1999.90;999.90;;;8.20;99.90;;;;;;5074557;28;20028;-78
2023/05/17 05:29:14;;;;;;;1999.90;999.90;;;8.30;99.90;;;;;;5074882;28;20490;-74
2023/05/17 05:31:40;;;;;;;1999.90;999.90;;;8.30;99.90;;;;;;5069299;28;20024;-73
2023/05/17 05:34:06;;;;;;;1999.90;999.90;;;8.40;99.90;;;;;;5073693;28;20036;-73
2023/05/17 05:36:31;;;;;;;1999.90;999.90;;;8.50;99.90;;;;;;5073437;28;20091;-77
2023/05/17 05:38:57;;;;;;;1999.90;999.90;;;8.50;99.90;;;;;;5074294;28;20498;-77
2023/05/17 05:41:23;;;;;;;1999.90;999.90;;;8.60;99.90;;;;;;5055723;28;20025;-73
2023/05/17 05:43:48;;;;;;;1999.90;999.90;;;8.60;99.90;;;;;;5073883;28;20043;-73
2023/05/17 05:46:14;;;;;;;1999.90;999.90;;;8.70;99.90;;;;;;5073987;28;20491;-77
2023/05/17 05:48:40;;;;;;;1999.90;999.90;;;8.70;99.90;;;;;;5071529;28;20033;-77
2023/05/17 05:51:06;;;;;;;1999.90;999.90;;;8.80;99.90;;;;;;5070204;28;20024;-77
2023/05/17 05:53:32;;;;;;;1999.90;999.90;;;8.90;99.90;;;;;;5072972;28;20032;-72
2023/05/17 05:55:58;;;;;;;1999.90;999.90;;;8.90;99.90;;;;;;5072356;28;20079;-74
2023/05/17 05:58:23;;;;;;;1999.90;999.90;;;9.00;99.90;;;;;;5072630;28;20040;-73
2023/05/17 06:00:49;;;;;;;1999.90;999.90;;;9.00;99.90;;;;;;5066290;28;20028;-73
2023/05/17 06:03:15;;;;;;;1999.90;999.90;;;9.10;99.90;;;;;;5072468;28;20127;-78
2023/05/17 06:05:41;;;;;;;1999.90;999.90;;;9.20;99.90;;;;;;5072237;28;20039;-77
2023/05/17 06:08:06;;;;;;;1999.90;999.90;;;9.20;99.90;;;;;;5064506;28;20060;-78
2023/05/17 06:10:32;;;;;;;1999.90;999.90;;;9.30;99.90;;;;;;5072708;28;20028;-74
2023/05/17 06:12:58;;;;;;;1999.90;999.90;;;9.30;99.90;;;;;;5071810;28;20060;-78
2023/05/17 06:15:25;;;;;;;1999.90;999.90;;;9.40;99.90;;;;;;5071083;28;20055;-78
2023/05/17 06:17:51;;;;;;;1999.90;999.90;;;9.50;99.90;;;;;;5070979;28;20510;-78
2023/05/17 06:20:17;;;;;;;1999.90;999.90;;;9.60;99.90;;;;;;5069450;28;20029;-78
2023/05/17 06:22:43;;;;;;;1999.90;999.90;;;9.70;99.90;;;;;;5071224;28;20072;-74
2023/05/17 06:25:10;;;;;;;1999.90;999.90;;;9.70;99.90;;;;;;5066754;28;20037;-74
2023/05/17 06:27:36;;;;;;;1999.90;999.90;;;9.80;99.90;;;;;;5071506;28;20051;-78
2023/05/17 06:30:03;;;;;;;1999.90;999.90;;;9.90;99.90;;;;;;5070589;28;20107;-77
2023/05/17 06:32:29;;;;;;;1999.90;999.90;;;10.00;99.90;;;;;;5071270;28;20792;-78
2023/05/17 06:34:55;;;;;;;1999.90;999.90;;;10.10;99.90;;;;;;5071490;28;20020;-74
2023/05/17 06:37:20;;;;;;;1999.90;999.90;;;10.20;99.90;;;;;;5071653;28;20032;-78
2023/05/17 06:39:46;;;;;;;1999.90;999.90;;;10.30;99.90;;;;;;5071110;28;20123;-77
2023/05/17 06:42:12;;;;;;;1999.90;999.90;;;10.40;99.90;;;;;;5071455;28;20411;-73
2023/05/17 06:44:37;;;;;;;1999.90;999.90;;;10.50;99.90;;;;;;5069906;28;20078;-74
2023/05/17 06:47:03;;;;;;;1999.90;999.90;;;10.50;99.90;;;;;;5071091;28;20025;-74
2023/05/17 06:49:29;;;;;;;1999.90;999.90;;;10.70;99.90;;;;;;5070782;28;20039;-74
2023/05/17 06:52:01;;;;;;;1999.90;999.90;;;10.80;99.90;;;;;;5071118;28;20024;-73
2023/05/17 06:54:26;;;;;;;1999.90;999.90;;;11.00;99.90;;;;;;5071234;28;20106;-73
2023/05/17 06:56:52;;;;;;;1999.90;999.90;;;11.10;99.90;;;;;;5071531;28;20498;-78
2023/05/17 06:59:18;;;;;;;1999.90;999.90;;;11.20;99.90;;;;;;5070827;28;20032;-74
2023/05/17 07:01:43;;;;;;;1999.90;999.90;;;11.40;99.90;;;;;;5069614;28;20550;-74
2023/05/17 07:04:09;;;;;;;1999.90;999.90;;;11.50;99.90;;;;;;5068731;28;20024;-74
2023/05/17 07:06:34;;;;;;;1999.90;999.90;;;11.70;99.90;;;;;;5068716;28;20500;-74
2023/05/17 07:09:00;;;;;;;1999.90;999.90;;;11.80;99.90;;;;;;5067307;28;20078;-74
2023/05/17 07:11:25;;;;;;;1999.90;999.90;;;11.90;99.90;;;;;;5064073;28;20559;-78
2023/05/17 07:13:51;;;;;;;1999.90;999.90;;;12.00;99.90;;;;;;5072133;28;20342;-74
2023/05/17 07:16:17;;;;;;;1999.90;999.90;;;12.10;99.90;;;;;;5064842;28;20024;-74
2023/05/17 07:18:42;;;;;;;1999.90;999.90;;;12.30;99.90;;;;;;5071575;28;20036;-74
2023/05/17 07:21:08;;;;;;;1999.90;999.90;;;12.50;99.90;;;;;;5068803;28;20021;-78
2023/05/17 07:23:33;;;;;;;1999.90;999.90;;;12.70;99.90;;;;;;5069494;28;20111;-78
2023/05/17 07:25:59;;;;;;;1999.90;999.90;;;12.90;99.90;;;;;;5067813;28;20451;-77
2023/05/17 07:28:25;;;;;;;1999.90;999.90;;;13.00;99.90;;;;;;5069651;28;20086;-74
2023/05/17 07:30:50;;;;;;;1999.90;999.90;;;13.10;99.90;;;;;;5068643;28;20021;-74
2023/05/17 07:33:16;;;;;;;1999.90;999.90;;;13.40;99.90;;;;;;5076157;28;20028;-78
2023/05/17 07:35:42;;;;;;;1999.90;999.90;;;13.60;99.90;;;;;;5068714;28;20469;-79
2023/05/17 07:38:09;;;;;;;1999.90;999.90;;;14.10;99.90;;;;;;5071499;28;20075;-79
2023/05/17 07:40:35;;;;;;;1999.90;999.90;;;15.90;99.90;;;;;;5069852;28;20016;-75
2023/05/17 07:43:00;;;;;;;1999.90;999.90;;;18.30;99.90;;;;;;5068353;28;20034;-74
2023/05/17 07:45:26;;;;;;;1999.90;999.90;;;19.60;99.90;;;;;;5067578;28;20112;-79
2023/05/17 07:47:52;;;;;;;1999.90;999.90;;;20.40;99.90;;;;;;5068648;28;20518;-75
2023/05/17 07:50:17;;;;;;;1999.90;999.90;;;21.00;99.90;;;;;;5050675;28;20024;-78
2023/05/17 07:52:43;;;;;;;1999.90;999.90;;;21.50;99.90;;;;;;5071309;28;20064;-75
2023/05/17 07:55:09;;;;;;;1999.90;999.90;;;22.10;99.90;;;;;;5069368;28;20060;-75
2023/05/17 07:57:34;;;;;;;1999.90;999.90;;;22.50;99.90;;;;;;5073862;28;20107;-79
2023/05/17 08:00:00;;;;;;;1999.90;999.90;;;22.60;99.90;;;;;;5073133;28;20048;-79
2023/05/17 08:02:25;;;;;;;1999.90;999.90;;;23.20;99.90;;;;;;5073432;28;20064;-74
2023/05/17 08:04:51;;;;;;;1999.90;999.90;;;23.30;99.90;;;;;;5070941;28;20368;-79
2023/05/17 08:07:16;;;;;;;1999.90;999.90;;;23.40;99.60;;;;;;5067777;28;20131;-75
2023/05/17 08:09:44;;;;;;;1999.90;999.90;;;24.00;99.40;;;;;;5078333;28;20020;-78
2023/05/17 08:12:10;;;;;;;1999.90;999.90;;;24.00;98.80;;;;;;5072844;28;20025;-78
2023/05/17 08:14:35;;;;;;;1999.90;999.90;;;24.40;98.10;;;;;;5074768;28;20402;-74
2023/05/17 08:17:01;;;;;;;1999.90;999.90;;;24.20;97.60;;;;;;5071816;28;20024;-81
2023/05/17 08:19:27;;;;;;;1999.90;999.90;;;24.50;96.90;;;;;;5070477;28;20082;-75
2023/05/17 08:21:52;;;;;;;1999.90;999.90;;;24.60;96.60;;;;;;5066807;28;20032;-80
2023/05/17 08:24:18;;;;;;;1999.90;999.90;;;24.40;96.90;;;;;;5070581;28;20036;-75
2023/05/17 08:26:44;;;;;;;1999.90;999.90;;;24.90;96.10;;;;;;5070218;28;20024;-79
2023/05/17 08:29:09;;;;;;;1999.90;999.90;;;24.60;96.90;;;;;;5071189;28;20074;-80
2023/05/17 08:31:35;;;;;;;1999.90;999.90;;;25.00;97.30;;;;;;5069869;28;20024;-75
2023/05/17 08:34:00;;;;;;;1999.90;999.90;;;24.70;95.70;;;;;;5071452;28;20025;-80
2023/05/17 08:36:27;;;;;;;1999.90;999.90;;;25.40;95.50;;;;;;5075981;28;20458;-79
2023/05/17 08:38:52;;;;;;;1999.90;999.90;;;25.60;95.80;;;;;;5074866;28;20068;-80
2023/05/17 08:41:19;;;;;;;1999.90;999.90;;;25.70;95.10;;;;;;5072148;28;20056;-80
2023/05/17 08:43:46;;;;;;;1999.90;999.90;;;25.90;94.40;;;;;;5074249;28;20062;-81
2023/05/17 08:46:12;;;;;;;1999.90;999.90;;;26.00;93.40;;;;;;5084256;28;20511;-76
2023/05/17 08:48:40;;;;;;;1999.90;999.90;;;26.20;93.90;;;;;;5077689;28;20031;-79
2023/05/17 08:51:07;;;;;;;1999.90;999.90;;;26.60;93.20;;;;;;5072738;28;20017;-79
2023/05/17 08:53:34;;;;;;;1999.90;999.90;;;26.50;92.70;;;;;;5073006;28;20037;-79
2023/05/17 08:56:03;;;;;;;1999.90;999.90;;;26.40;93.10;;;;;;5081741;28;20152;-79
2023/05/17 08:58:36;;;;;;;1999.90;999.90;;;27.00;92.40;;;;;;5080459;28;20021;-74
2023/05/17 09:01:02;;;;;;;1999.90;999.90;;;26.60;91.60;;;;;;5080625;28;20027;-75
2023/05/17 09:03:29;;;;;;;1999.90;999.90;;;27.40;92.00;;;;;;5079633;28;20032;-78
2023/05/17 09:05:55;;;;;;;1999.90;999.90;;;27.20;91.20;;;;;;5080715;28;20032;-79
2023/05/17 09:08:22;;;;;;;1999.90;999.90;;;27.50;91.10;;;;;;5074323;28;20045;-79
2023/05/17 09:10:48;;;;;;;1999.90;999.90;;;26.40;91.40;;;;;;5073614;28;20416;-79
2023/05/17 09:13:14;;;;;;;1999.90;999.90;;;26.60;91.30;;;;;;5074457;28;20033;-75
2023/05/17 09:15:43;;;;;;;1999.90;999.90;;;26.80;91.20;;;;;;5081058;28;20025;-74
2023/05/17 09:18:12;;;;;;;1999.90;999.90;;;27.10;90.30;;;;;;5081983;28;20043;-79
2023/05/17 09:20:39;;;;;;;1999.90;999.90;;;26.20;90.20;;;;;;5075674;28;20380;-79
2023/05/17 09:23:08;;;;;;;1999.90;999.90;;;26.60;90.80;;;;;;5052043;28;20163;-78
2023/05/17 09:25:34;;;;;;;1999.90;999.90;;;26.90;90.00;;;;;;5064590;28;20029;-74
2023/05/17 09:28:06;;;;;;;1999.90;999.90;;;27.40;90.10;;;;;;5066210;28;20082;-74
2023/05/17 09:30:36;;;;;;;1999.90;999.90;;;27.20;90.10;;;;;;5067448;28;20031;-77
2023/05/17 09:33:07;;;;;;;1999.90;999.90;;;26.80;89.30;;;;;;5070739;28;20021;-78
2023/05/17 09:35:35;;;;;;;1999.90;999.90;;;26.80;89.70;;;;;;5072102;28;20063;-78
2023/05/17 09:38:07;;;;;;;1999.90;999.90;;;26.50;89.20;;;;;;5070939;28;20067;-74
2023/05/17 09:40:36;;;;;;;1999.90;999.90;;;26.50;88.10;;;;;;5043607;28;20043;-78
2023/05/17 09:43:02;;;;;;;1999.90;999.90;;;26.20;88.60;;;;;;5074050;28;20020;-78
2023/05/17 09:45:30;;;;;;;1999.90;999.90;;;25.90;89.30;;;;;;5070147;28;20032;-74
2023/05/17 09:47:56;;;;;;;1999.90;999.90;;;26.20;89.30;;;;;;5071884;28;20498;-75
2023/05/17 09:50:21;;;;;;;1999.90;999.90;;;25.90;90.00;;;;;;5071443;28;20119;-74
2023/05/17 09:52:47;;;;;;;1999.90;999.90;;;26.30;88.40;;;;;;5067335;28;20035;-74
2023/05/17 09:55:14;;;;;;;1999.90;999.90;;;26.90;87.70;;;;;;5071262;28;20087;-79
2023/05/17 09:57:40;;;;;;;1999.90;999.90;;;26.80;87.40;;;;;;5070212;28;20028;-78
2023/05/17 10:00:11;;;;;;;1999.90;999.90;;;26.60;87.70;;;;;;5072125;28;20033;-78
2023/05/17 10:02:39;;;;;;;1999.90;999.90;;;26.70;87.10;;;;;;5070415;28;20083;-74
2023/05/17 10:05:09;;;;;;;1999.90;999.90;;;26.80;86.90;;;;;;5066478;28;20032;-74
2023/05/17 10:07:36;;;;;;;1999.90;999.90;;;26.50;87.40;;;;;;5068858;28;20059;-78
2023/05/17 10:10:03;;;;;;;1999.90;999.90;;;26.20;87.10;;;;;;5079358;28;20040;-79
2023/05/17 10:12:32;;;;;;;1999.90;999.90;;;26.70;86.90;;;;;;5073690;28;20023;-79
2023/05/17 10:14:59;;;;;;;1999.90;999.90;;;27.00;86.30;;;;;;5070843;28;20150;-78
2023/05/17 10:17:28;;;;;;;1999.90;999.90;;;27.00;86.40;;;;;;5080311;28;20028;-79
2023/05/17 10:19:55;;;;;;;1999.90;999.90;;;27.10;85.60;;;;;;5071260;28;20029;-75
2023/05/17 10:22:21;;;;;;;1999.90;999.90;;;27.40;86.60;;;;;;5068412;28;20039;-79
2023/05/17 10:24:48;;;;;;;1999.90;999.90;;;26.50;87.30;;;;;;5059065;28;20031;-75
2023/05/17 10:27:15;;;;;;;1999.90;999.90;;;26.50;86.00;;;;;;5062894;28;20021;-79
2023/05/17 10:29:42;;;;;;;1999.90;999.90;;;24.70;86.90;;;;;;5069088;28;20033;-74
2023/05/17 10:32:09;;;;;;;1999.90;999.90;;;22.40;91.10;;;;;;5070484;28;20036;-79
2023/05/17 10:34:36;;;;;;;1999.90;999.90;;;23.30;93.90;;;;;;5070470;28;20479;-74
2023/05/17 10:37:03;;;;;;;1999.90;999.90;;;22.70;91.00;;;;;;5075763;28;20094;-77
2023/05/17 10:39:33;;;;;;;1999.90;999.90;;;23.60;91.30;;;;;;5072718;28;20510;-78
2023/05/17 10:42:01;;;;;;;1999.90;999.90;;;22.00;92.10;;;;;;5065796;28;20108;-79
2023/05/17 10:44:29;;;;;;;1999.90;999.90;;;22.10;95.00;;;;;;5072086;28;20031;-74
2023/05/17 10:46:56;;;;;;;1999.90;999.90;;;21.40;94.70;;;;;;5064796;28;20039;-78
2023/05/17 10:49:26;;;;;;;1999.90;999.90;;;20.60;95.70;;;;;;5075539;28;20036;-78
2023/05/17 10:51:52;;;;;;;1999.90;999.90;;;21.10;96.00;;;;;;5081140;28;20387;-78
2023/05/17 10:54:18;;;;;;;1999.90;999.90;;;22.50;94.00;;;;;;5071940;28;20038;-79
2023/05/17 10:56:48;;;;;;;1999.90;999.90;;;23.50;93.10;;;;;;5075457;28;20114;-74
2023/05/17 10:59:25;;;;;;;1999.90;999.90;;;23.10;92.00;;;;;;5070400;28;20036;-74
2023/05/17 11:02:07;;;;;;;1999.90;999.90;;;24.50;91.50;;;;;;5065707;28;20025;-79
2023/05/17 11:04:36;;;;;;;1999.90;999.90;;;24.90;90.20;;;;;;5066347;28;20032;-79
2023/05/17 11:07:25;;;;;;;1999.90;999.90;;;25.10;90.10;;;;;;5070706;28;20052;-78
2023/05/17 11:10:07;;;;;;;1999.90;999.90;;;25.10;89.40;;;;;;5069691;28;20028;-79
2023/05/17 11:12:45;;;;;;;1999.90;999.90;;;24.90;90.00;;;;;;5068936;28;20503;-77
2023/05/17 11:15:13;;;;;;;1999.90;999.90;;;24.40;90.80;;;;;;5058524;28;20031;-79
2023/05/17 11:17:41;;;;;;;1999.90;999.90;;;25.30;90.80;;;;;;5071608;28;20029;-78
2023/05/17 11:20:09;;;;;;;1999.90;999.90;;;23.90;91.10;;;;;;5073420;28;20029;-74
2023/05/17 11:22:43;;;;;;;1999.90;999.90;;;24.20;90.80;;;;;;5068703;28;20030;-74
2023/05/17 11:25:13;;;;;;;1999.90;999.90;;;24.60;89.70;;;;;;5068115;28;20506;-78
2023/05/17 11:27:43;;;;;;;1999.90;999.90;;;25.90;91.20;;;;;;5068245;28;20032;-79
2023/05/17 11:30:23;;;;;;;1999.90;999.90;;;25.40;86.30;;;;;;5051296;28;20024;-74
2023/05/17 11:32:50;;;;;;;1999.90;999.90;;;25.50;88.40;;;;;;5074262;28;20024;-80
2023/05/17 11:35:23;;;;;;;1999.90;999.90;;;25.10;88.70;;;;;;5072247;28;20048;-76
2023/05/17 11:37:52;;;;;;;1999.90;999.90;;;25.90;90.60;;;;;;5074236;28;20399;-76
2023/05/17 11:40:27;;;;;;;1999.90;999.90;;;26.50;87.40;;;;;;5082328;28;20107;-80
2023/05/17 11:43:21;;;;;;;1999.90;999.90;;;24.70;89.10;;;;;;5070698;28;20036;-80
2023/05/17 11:45:52;;;;;;;1999.90;999.90;;;23.30;90.70;;;;;;5079595;28;20032;-80
2023/05/17 11:48:20;;;;;;;1999.90;999.90;;;22.10;92.90;;;;;;5069444;28;20029;-80
2023/05/17 11:50:47;;;;;;;1999.90;999.90;;;21.30;93.80;;;;;;5078055;28;20073;-80
2023/05/17 11:53:14;;;;;;;1999.90;999.90;;;21.40;95.00;;;;;;5076158;28;20043;-80
2023/05/17 11:55:50;;;;;;;1999.90;999.90;;;23.60;95.20;;;;;;5078679;28;20028;-80
2023/05/17 11:58:18;;;;;;;1999.90;999.90;;;23.50;90.30;;;;;;5073398;28;20516;-76
2023/05/17 12:00:44;;;;;;;1999.90;999.90;;;23.70;90.80;;;;;;5075940;28;20059;-75
2023/05/17 12:03:19;;;;;;;1999.90;999.90;;;24.20;90.90;;;;;;5073455;28;20040;-80
2023/05/17 12:05:47;;;;;;;1999.90;999.90;;;24.40;91.60;;;;;;5068870;28;20032;-80